createdAt,value
2022-12-08T00:00:07.549Z,34.00
2022-12-08T00:32:09.702Z,51.25
2022-12-08T00:35:14.650Z,52.80
2022-12-08T00:38:36.944Z,45.03
2022-12-08T00:47:25.004Z,49.67
2022-12-08T00:50:34.938Z,49.30
2022-12-08T00:53:40.460Z,58.53
2022-12-08T00:56:45.260Z,58.50
2022-12-08T00:59:55.911Z,54.00
2022-12-08T01:03:05.283Z,48.47
2022-12-08T01:06:16.908Z,39.33
2022-12-08T01:09:28.472Z,40.92
2022-12-08T01:12:36.716Z,34.75
2022-12-08T01:15:41.178Z,45.75
2022-12-08T01:18:46.478Z,50.97
2022-12-08T01:21:51.488Z,48.25
2022-12-08T01:24:55.734Z,52.80
2022-12-08T01:28:00.110Z,49.25
2022-12-08T01:31:10.546Z,51.63
2022-12-08T01:34:15.240Z,59.65
2022-12-08T01:37:20.672Z,45.42
2022-12-08T01:40:25.587Z,40.97
2022-12-08T01:44:02.526Z,41.38
2022-12-08T01:47:08.484Z,50.47
2022-12-08T01:50:17.647Z,49.72
2022-12-08T01:53:29.257Z,44.05
2022-12-08T01:56:55.403Z,41.00
2022-12-08T02:00:10.654Z,37.22
2022-12-08T02:03:31.314Z,32.40
2022-12-08T02:06:40.816Z,36.20
2022-12-08T02:09:49.223Z,26.40
2022-12-08T02:13:02.283Z,23.17
2022-12-08T02:16:37.812Z,21.20
2022-12-08T02:20:46.942Z,26.55
2022-12-08T02:24:35.500Z,22.50
2022-12-08T02:27:57.899Z,23.58
2022-12-08T02:31:33.338Z,23.60
2022-12-08T02:35:40.490Z,20.20
2022-12-08T05:07:22.904Z,17.85
2022-12-08T05:11:06.790Z,22.05
2022-12-08T05:15:02.933Z,20.08
2022-12-08T05:18:21.595Z,17.20
2022-12-08T05:22:00.286Z,20.65
2022-12-08T05:26:17.091Z,20.58
2022-12-08T05:34:03.491Z,18.90
2022-12-08T05:37:15.263Z,20.05
2022-12-08T05:41:20.278Z,18.92
2022-12-08T05:44:43.240Z,16.80
2022-12-08T05:49:01.940Z,19.30
2022-12-08T05:52:35.929Z,22.00
2022-12-08T05:55:52.232Z,18.92
2022-12-08T06:00:03.834Z,25.70
2022-12-08T06:04:34.756Z,28.88
2022-12-08T06:12:38.559Z,31.33
2022-12-08T06:16:28.402Z,29.65
2022-12-08T06:19:57.878Z,28.83
2022-12-08T06:23:28.059Z,29.80
2022-12-08T06:31:41.375Z,27.38
2022-12-08T06:43:32.218Z,34.28
2022-12-08T06:46:39.731Z,30.17
2022-12-08T06:49:55.111Z,28.85
2022-12-08T06:53:05.731Z,27.73
2022-12-08T06:56:29.038Z,28.88
2022-12-08T07:03:00.729Z,35.53
2022-12-08T07:06:12.010Z,38.90
2022-12-08T07:09:23.496Z,32.15
2022-12-08T07:12:38.062Z,32.00
2022-12-08T07:18:55.596Z,38.35
2022-12-08T07:22:04.573Z,38.53
2022-12-08T07:25:18.070Z,39.13
2022-12-08T07:28:27.265Z,46.08
2022-12-08T07:31:33.385Z,36.20
2022-12-08T07:34:38.058Z,45.40
2022-12-08T07:37:45.123Z,43.63
2022-12-08T07:40:52.970Z,45.00
2022-12-08T07:43:57.998Z,46.00
2022-12-08T07:47:02.944Z,49.47
2022-12-08T07:50:08.686Z,42.40
2022-12-08T07:53:15.096Z,49.00
2022-12-08T07:56:20.338Z,45.95
2022-12-08T07:59:25.254Z,40.38
2022-12-08T08:02:29.958Z,48.70
2022-12-08T08:05:34.943Z,45.45
2022-12-08T08:08:39.554Z,45.42
2022-12-08T08:11:55.931Z,70.47
2022-12-08T08:15:10.106Z,75.20
2022-12-08T08:18:15.062Z,47.70
2022-12-08T08:24:45.462Z,43.67
2022-12-08T08:27:50.918Z,38.35
2022-12-08T08:31:02.776Z,46.33
2022-12-08T08:34:09.893Z,38.92
2022-12-08T08:37:20.182Z,46.90
2022-12-08T08:40:25.063Z,45.55
2022-12-08T08:43:37.536Z,48.67
2022-12-08T08:46:46.084Z,39.55
2022-12-08T08:49:50.803Z,57.30
2022-12-08T08:52:55.611Z,45.25
2022-12-08T08:56:02.495Z,53.03
2022-12-08T08:59:07.703Z,57.63
2022-12-08T09:02:19.758Z,56.90
2022-12-08T09:05:24.954Z,57.63
2022-12-08T09:08:31.887Z,56.03
2022-12-08T09:11:43.444Z,69.82
2022-12-08T09:14:59.451Z,61.92
2022-12-08T09:18:09.583Z,59.50
2022-12-08T09:21:26.326Z,57.78
2022-12-08T09:24:37.166Z,55.83
2022-12-08T09:27:50.086Z,46.58
2022-12-08T09:31:13.694Z,51.75
2022-12-08T09:34:24.677Z,53.78
2022-12-08T09:37:30.759Z,58.38
2022-12-08T09:40:51.831Z,66.30
2022-12-08T09:44:09.308Z,60.97
2022-12-08T09:47:42.825Z,48.03
2022-12-08T09:50:54.619Z,60.45
2022-12-08T09:54:08.745Z,57.45
2022-12-08T09:57:20.607Z,39.45
2022-12-08T10:00:25.294Z,25.88
2022-12-08T10:03:31.484Z,26.98
2022-12-08T10:06:57.566Z,26.15
2022-12-08T10:10:46.732Z,21.48
2022-12-08T10:14:26.945Z,21.20
2022-12-08T10:17:51.947Z,16.77
2022-12-08T10:21:16.508Z,17.20
2022-12-08T10:24:34.706Z,20.98
2022-12-08T10:27:39.355Z,17.73
2022-12-08T10:30:46.722Z,16.30
2022-12-08T10:34:26.097Z,15.43
2022-12-08T10:37:30.605Z,14.45
2022-12-08T10:40:45.343Z,15.05
2022-12-08T10:43:58.160Z,14.30
2022-12-08T10:47:14.511Z,9.93
2022-12-08T10:50:45.073Z,13.15
2022-12-08T10:53:49.649Z,9.90
2022-12-08T10:56:57.876Z,9.63
2022-12-08T11:00:03.052Z,16.50
2022-12-08T11:03:27.517Z,11.93
2022-12-08T11:09:49.098Z,13.60
2022-12-08T11:12:53.785Z,11.13
2022-12-08T11:15:58.607Z,18.33
2022-12-08T11:19:08.288Z,15.18
2022-12-08T11:22:37.244Z,14.88
2022-12-08T11:25:41.831Z,14.50
2022-12-08T11:28:46.360Z,16.70
2022-12-08T11:32:13.839Z,14.70
2022-12-08T11:35:28.625Z,13.38
2022-12-08T11:38:35.431Z,16.63
2022-12-08T11:41:44.129Z,12.85
2022-12-08T11:44:59.211Z,13.52
2022-12-08T11:48:22.886Z,12.57
2022-12-08T11:51:59.792Z,9.35
2022-12-08T11:55:24.423Z,20.27
2022-12-08T11:58:45.748Z,13.88
2022-12-08T12:01:51.083Z,11.75
2022-12-08T12:05:10.066Z,14.30
2022-12-08T12:08:54.007Z,12.15
2022-12-08T12:12:19.135Z,12.88
2022-12-08T12:15:51.389Z,9.23
2022-12-08T12:19:15.039Z,13.80
2022-12-08T12:22:22.915Z,13.45
2022-12-08T12:25:28.536Z,15.57
2022-12-08T12:28:54.998Z,10.13
2022-12-08T12:32:08.752Z,9.55
2022-12-08T12:35:33.911Z,10.90
2022-12-08T12:39:02.695Z,7.35
2022-12-08T12:42:07.593Z,7.97
2022-12-08T12:45:12.613Z,10.05
2022-12-08T12:48:24.981Z,13.25
2022-12-08T12:51:42.594Z,10.60
2022-12-08T12:54:50.058Z,9.05
2022-12-08T12:57:58.208Z,14.73
2022-12-08T13:01:12.097Z,17.75
2022-12-08T13:04:17.793Z,18.70
2022-12-08T13:07:33.250Z,17.00
2022-12-08T13:10:40.336Z,21.27
2022-12-08T13:14:05.403Z,13.45
2022-12-08T13:17:17.624Z,11.75
2022-12-08T13:20:25.059Z,14.50
2022-12-08T13:24:13.717Z,11.68
2022-12-08T13:27:34.450Z,15.10
2022-12-08T13:30:44.135Z,16.40
2022-12-08T13:33:48.801Z,15.93
2022-12-08T13:37:27.374Z,18.23
2022-12-08T13:40:34.416Z,22.83
2022-12-08T13:45:11.378Z,18.63
2022-12-08T13:48:30.090Z,19.42
2022-12-08T13:59:28.070Z,24.23
2022-12-08T14:02:47.116Z,22.13
2022-12-08T14:09:23.150Z,21.63
2022-12-08T14:12:28.578Z,24.65
2022-12-08T14:15:38.128Z,26.90
2022-12-08T14:18:43.452Z,22.45
2022-12-08T14:21:58.686Z,24.67
2022-12-08T14:25:06.148Z,29.30
2022-12-08T14:28:11.645Z,27.60
2022-12-08T14:31:17.634Z,25.02
2022-12-08T14:34:22.275Z,23.60
2022-12-08T14:37:33.148Z,26.05
2022-12-08T14:40:46.917Z,31.42
2022-12-08T14:47:10.980Z,24.92
2022-12-08T14:50:44.999Z,30.63
2022-12-08T14:54:01.738Z,20.40
2022-12-08T14:57:07.617Z,24.20
2022-12-08T15:00:20.670Z,27.40
2022-12-08T15:03:31.240Z,28.15
2022-12-08T15:06:36.232Z,27.45
2022-12-08T15:09:44.851Z,23.35
2022-12-08T15:13:09.077Z,21.48
2022-12-08T15:16:30.501Z,26.27
2022-12-08T15:19:35.347Z,30.10
2022-12-08T15:22:39.643Z,26.23
2022-12-08T15:25:43.989Z,23.52
2022-12-08T15:28:48.383Z,26.55
2022-12-08T15:31:57.185Z,28.10
2022-12-08T15:35:01.837Z,29.63
2022-12-08T15:38:07.231Z,25.35
2022-12-08T15:41:15.131Z,22.67
2022-12-08T15:44:19.842Z,23.25
2022-12-08T15:47:25.807Z,27.95
2022-12-08T15:50:30.450Z,25.95
2022-12-08T15:53:34.928Z,26.10
2022-12-08T15:57:18.119Z,33.03
2022-12-08T16:00:54.622Z,27.67
2022-12-08T16:04:59.667Z,23.98
2022-12-08T16:07:27.380Z,22.88
2022-12-08T16:10:52.233Z,24.65
2022-12-08T16:14:09.490Z,22.90
2022-12-08T16:17:22.494Z,22.75
2022-12-08T16:20:44.059Z,23.85
2022-12-08T16:23:51.497Z,24.50
2022-12-08T16:30:21.713Z,20.80
2022-12-08T16:33:26.024Z,23.55
2022-12-08T16:36:30.769Z,21.45
2022-12-08T16:39:38.724Z,23.33
2022-12-08T16:42:46.505Z,23.98
2022-12-08T16:45:51.616Z,22.88
2022-12-08T16:48:59.106Z,24.73
2022-12-08T16:52:04.075Z,26.67
2022-12-08T16:55:11.479Z,21.50
2022-12-08T16:58:18.638Z,24.73
2022-12-08T17:01:23.856Z,24.15
2022-12-08T17:04:32.257Z,24.08
2022-12-08T17:07:37.260Z,21.50
2022-12-08T17:10:43.335Z,24.30
2022-12-08T17:13:47.850Z,24.50
2022-12-08T17:16:52.525Z,18.70
2022-12-08T17:19:57.022Z,20.48
2022-12-08T17:23:01.383Z,20.20
2022-12-08T17:26:06.037Z,17.67
2022-12-08T17:29:10.278Z,19.38
2022-12-08T17:32:14.943Z,19.30
2022-12-08T17:35:19.772Z,19.33
2022-12-08T17:38:24.900Z,20.38
2022-12-08T17:41:30.316Z,23.17
2022-12-08T17:44:35.167Z,19.17
2022-12-08T17:47:39.760Z,21.23
2022-12-08T17:50:45.338Z,21.95
2022-12-08T17:53:49.939Z,23.27
2022-12-08T17:56:58.457Z,24.13
2022-12-08T18:00:05.514Z,26.75
2022-12-08T18:03:10.719Z,28.88
2022-12-08T18:06:16.102Z,22.40
2022-12-08T18:09:21.400Z,24.30
2022-12-08T18:12:25.881Z,16.52
2022-12-08T18:15:33.557Z,19.35
2022-12-08T18:18:40.592Z,26.92
2022-12-08T18:21:45.115Z,28.10
2022-12-08T18:24:49.784Z,36.50
2022-12-08T18:27:54.211Z,28.38
2022-12-08T18:30:58.693Z,26.92
2022-12-08T18:34:03.735Z,35.13
2022-12-08T18:37:08.810Z,36.33
2022-12-08T18:40:17.639Z,29.20
2022-12-08T18:43:22.292Z,39.10
2022-12-08T18:46:26.805Z,38.83
2022-12-08T18:49:31.185Z,33.35
2022-12-08T18:52:35.818Z,30.52
2022-12-08T18:55:40.257Z,39.63
2022-12-08T18:58:44.837Z,38.92
2022-12-08T19:01:49.425Z,39.17
2022-12-08T19:04:58.236Z,45.13
2022-12-08T19:08:03.226Z,44.53
2022-12-08T19:11:22.065Z,43.92
2022-12-08T19:14:28.433Z,42.17
2022-12-08T19:17:33.012Z,40.78
2022-12-08T19:20:37.345Z,38.00
2022-12-08T19:23:42.443Z,36.88
2022-12-08T19:26:47.104Z,44.28
2022-12-08T19:29:51.771Z,42.05
2022-12-08T19:32:56.405Z,41.88
2022-12-08T19:36:22.849Z,42.15
2022-12-08T19:39:46.042Z,34.72
2022-12-08T19:43:08.930Z,36.03
2022-12-08T19:46:13.772Z,36.63
2022-12-08T19:49:18.482Z,35.08
2022-12-08T19:52:23.396Z,35.08
2022-12-08T19:55:28.465Z,35.42
2022-12-08T19:58:32.921Z,39.08
2022-12-08T20:01:38.684Z,38.25
2022-12-08T20:04:43.333Z,40.35
2022-12-08T20:07:47.845Z,34.67
2022-12-08T20:10:55.912Z,36.55
2022-12-08T20:14:00.323Z,39.35
2022-12-08T20:17:05.014Z,45.78
2022-12-08T20:20:10.849Z,40.13
2022-12-08T20:23:16.930Z,45.63
2022-12-08T20:26:23.214Z,43.03
2022-12-08T20:29:27.474Z,52.28
2022-12-08T20:32:32.245Z,56.47
2022-12-08T20:35:37.012Z,70.05
2022-12-08T20:38:42.288Z,77.22
2022-12-08T20:41:47.211Z,69.93
2022-12-08T20:44:52.178Z,69.97
2022-12-08T20:47:57.719Z,76.63
2022-12-08T20:51:03.076Z,69.43
2022-12-08T20:54:07.279Z,71.07
2022-12-08T20:57:11.639Z,68.13
2022-12-08T21:00:17.044Z,69.68
2022-12-08T21:03:22.924Z,64.65
2022-12-08T21:06:27.806Z,66.20
2022-12-08T21:09:32.381Z,74.68
2022-12-08T21:12:36.920Z,66.97
2022-12-08T21:15:46.582Z,72.55
2022-12-08T21:18:51.407Z,62.75
2022-12-08T21:21:56.384Z,77.22
2022-12-08T21:25:01.054Z,80.25
2022-12-08T21:28:05.572Z,73.93
2022-12-08T21:31:12.951Z,79.53
2022-12-08T21:34:17.350Z,84.40
2022-12-08T21:37:21.628Z,87.47
2022-12-08T21:40:26.055Z,88.10
2022-12-08T21:43:30.729Z,98.70
2022-12-08T21:46:35.945Z,91.57
2022-12-08T21:49:41.776Z,89.78
2022-12-08T21:52:49.372Z,95.70
2022-12-08T21:55:54.051Z,94.07
2022-12-08T21:58:58.606Z,93.30
2022-12-08T22:02:03.661Z,94.35
2022-12-08T22:05:09.239Z,92.13
2022-12-08T22:08:14.397Z,99.75
2022-12-08T22:11:19.339Z,112.03
2022-12-08T22:14:24.065Z,109.32
2022-12-08T22:17:28.967Z,101.05
2022-12-08T22:20:33.787Z,99.20
2022-12-08T22:23:39.229Z,112.38
2022-12-08T22:26:44.258Z,138.55
2022-12-08T22:29:49.096Z,160.43
2022-12-08T22:32:54.193Z,150.88
2022-12-08T22:36:08.077Z,173.68
2022-12-08T22:39:15.340Z,193.98
2022-12-08T22:42:19.825Z,209.60
2022-12-08T22:45:24.404Z,132.05
2022-12-08T22:48:29.345Z,112.13
2022-12-08T22:51:36.727Z,124.63
2022-12-08T22:54:40.924Z,96.30
2022-12-08T22:57:45.340Z,123.57
2022-12-08T23:00:50.504Z,125.43
2022-12-08T23:03:55.046Z,135.70
2022-12-08T23:06:59.763Z,133.18
2022-12-08T23:10:06.706Z,143.82
2022-12-08T23:13:13.453Z,124.75
2022-12-08T23:16:18.565Z,115.75
2022-12-08T23:19:23.185Z,103.75
2022-12-08T23:22:28.281Z,125.57
2022-12-08T23:25:33.028Z,132.40
2022-12-08T23:28:37.852Z,132.93
2022-12-08T23:31:42.593Z,107.50
2022-12-08T23:34:47.393Z,124.55
2022-12-08T23:37:53.709Z,93.95
2022-12-08T23:41:04.309Z,109.55
2022-12-08T23:44:09.178Z,93.60
2022-12-08T23:47:13.659Z,93.85
2022-12-08T23:50:18.261Z,97.60
2022-12-08T23:53:23.920Z,98.75
2022-12-08T23:56:30.419Z,96.63
2022-12-08T23:59:35.484Z,99.00
